sensor_id;sensor_type;location;lat;lon;timestamp;P1;durP1;ratioP1;P2;durP2;ratioP2
26578;SDS011;14227;47.674;19.320;2022-08-19T00:01:35;10.18;;;8.10;;
26578;SDS011;14227;47.674;19.320;2022-08-19T00:04:03;9.02;;;7.78;;
26578;SDS011;14227;47.674;19.320;2022-08-19T00:06:31;10.30;;;8.95;;
26578;SDS011;14227;47.674;19.320;2022-08-19T00:09:00;12.25;;;8.07;;
26578;SDS011;14227;47.674;19.320;2022-08-19T00:11:26;14.73;;;8.40;;
26578;SDS011;14227;47.674;19.320;2022-08-19T00:13:52;12.70;;;8.68;;
26578;SDS011;14227;47.674;19.320;2022-08-19T00:16:19;9.23;;;8.27;;
26578;SDS011;14227;47.674;19.320;2022-08-19T00:18:45;10.50;;;7.95;;
26578;SDS011;14227;47.674;19.320;2022-08-19T00:21:12;10.88;;;8.32;;
26578;SDS011;14227;47.674;19.320;2022-08-19T00:23:38;11.85;;;8.32;;
26578;SDS011;14227;47.674;19.320;2022-08-19T00:26:04;10.48;;;8.45;;
26578;SDS011;14227;47.674;19.320;2022-08-19T00:28:30;10.45;;;7.95;;
26578;SDS011;14227;47.674;19.320;2022-08-19T00:30:56;12.48;;;8.07;;
26578;SDS011;14227;47.674;19.320;2022-08-19T00:33:21;11.10;;;8.07;;
26578;SDS011;14227;47.674;19.320;2022-08-19T00:35:47;9.50;;;8.10;;
26578;SDS011;14227;47.674;19.320;2022-08-19T00:38:13;13.05;;;7.90;;
26578;SDS011;14227;47.674;19.320;2022-08-19T00:40:39;10.73;;;8.38;;
26578;SDS011;14227;47.674;19.320;2022-08-19T00:43:08;9.38;;;8.15;;
26578;SDS011;14227;47.674;19.320;2022-08-19T00:45:35;15.32;;;8.70;;
26578;SDS011;14227;47.674;19.320;2022-08-19T00:48:01;12.15;;;8.35;;
26578;SDS011;14227;47.674;19.320;2022-08-19T00:50:29;10.32;;;8.32;;
26578;SDS011;14227;47.674;19.320;2022-08-19T00:52:55;9.00;;;8.07;;
26578;SDS011;14227;47.674;19.320;2022-08-19T00:55:24;11.57;;;8.20;;
26578;SDS011;14227;47.674;19.320;2022-08-19T00:57:54;11.18;;;8.15;;
26578;SDS011;14227;47.674;19.320;2022-08-19T01:00:27;14.50;;;8.07;;
26578;SDS011;14227;47.674;19.320;2022-08-19T01:02:53;9.68;;;7.78;;
26578;SDS011;14227;47.674;19.320;2022-08-19T01:05:23;11.43;;;8.10;;
26578;SDS011;14227;47.674;19.320;2022-08-19T01:07:52;9.60;;;8.65;;
26578;SDS011;14227;47.674;19.320;2022-08-19T01:10:20;9.80;;;7.90;;
26578;SDS011;14227;47.674;19.320;2022-08-19T01:12:49;10.52;;;7.82;;
26578;SDS011;14227;47.674;19.320;2022-08-19T01:15:17;11.32;;;7.47;;
26578;SDS011;14227;47.674;19.320;2022-08-19T01:17:46;8.70;;;7.80;;
26578;SDS011;14227;47.674;19.320;2022-08-19T01:20:14;12.43;;;8.18;;
26578;SDS011;14227;47.674;19.320;2022-08-19T01:22:46;12.40;;;8.32;;
26578;SDS011;14227;47.674;19.320;2022-08-19T01:25:14;10.50;;;8.07;;
26578;SDS011;14227;47.674;19.320;2022-08-19T01:27:44;11.52;;;8.82;;
26578;SDS011;14227;47.674;19.320;2022-08-19T01:30:17;11.77;;;8.10;;
26578;SDS011;14227;47.674;19.320;2022-08-19T01:32:47;8.98;;;8.05;;
26578;SDS011;14227;47.674;19.320;2022-08-19T01:35:13;10.38;;;8.23;;
26578;SDS011;14227;47.674;19.320;2022-08-19T01:37:51;10.85;;;8.20;;
26578;SDS011;14227;47.674;19.320;2022-08-19T01:40:23;11.20;;;8.63;;
26578;SDS011;14227;47.674;19.320;2022-08-19T01:42:52;9.10;;;7.90;;
26578;SDS011;14227;47.674;19.320;2022-08-19T01:45:20;9.23;;;7.40;;
26578;SDS011;14227;47.674;19.320;2022-08-19T01:47:47;9.50;;;8.02;;
26578;SDS011;14227;47.674;19.320;2022-08-19T01:50:13;9.00;;;8.07;;
26578;SDS011;14227;47.674;19.320;2022-08-19T01:52:39;10.93;;;7.63;;
26578;SDS011;14227;47.674;19.320;2022-08-19T01:55:07;11.95;;;8.40;;
26578;SDS011;14227;47.674;19.320;2022-08-19T01:57:36;9.75;;;8.27;;
26578;SDS011;14227;47.674;19.320;2022-08-19T02:00:06;12.23;;;8.52;;
26578;SDS011;14227;47.674;19.320;2022-08-19T02:02:35;12.50;;;8.60;;
26578;SDS011;14227;47.674;19.320;2022-08-19T02:05:01;10.23;;;8.38;;
26578;SDS011;14227;47.674;19.320;2022-08-19T02:07:26;10.25;;;8.07;;
26578;SDS011;14227;47.674;19.320;2022-08-19T02:09:53;19.13;;;8.88;;
26578;SDS011;14227;47.674;19.320;2022-08-19T02:12:20;11.93;;;8.40;;
26578;SDS011;14227;47.674;19.320;2022-08-19T02:14:46;15.65;;;8.32;;
26578;SDS011;14227;47.674;19.320;2022-08-19T02:17:12;11.82;;;8.25;;
26578;SDS011;14227;47.674;19.320;2022-08-19T02:19:37;9.30;;;7.72;;
26578;SDS011;14227;47.674;19.320;2022-08-19T02:22:03;11.00;;;8.15;;
26578;SDS011;14227;47.674;19.320;2022-08-19T02:24:29;10.05;;;8.60;;
26578;SDS011;14227;47.674;19.320;2022-08-19T02:26:55;10.15;;;8.55;;
26578;SDS011;14227;47.674;19.320;2022-08-19T02:29:20;14.73;;;8.68;;
26578;SDS011;14227;47.674;19.320;2022-08-19T02:31:47;10.02;;;8.82;;
26578;SDS011;14227;47.674;19.320;2022-08-19T02:34:13;12.82;;;8.20;;
26578;SDS011;14227;47.674;19.320;2022-08-19T02:36:38;12.35;;;9.63;;
26578;SDS011;14227;47.674;19.320;2022-08-19T02:39:04;14.48;;;9.05;;
26578;SDS011;14227;47.674;19.320;2022-08-19T02:41:31;12.30;;;8.70;;
26578;SDS011;14227;47.674;19.320;2022-08-19T02:43:59;12.02;;;8.68;;
26578;SDS011;14227;47.674;19.320;2022-08-19T02:46:27;13.95;;;8.88;;
26578;SDS011;14227;47.674;19.320;2022-08-19T02:48:55;12.30;;;9.15;;
26578;SDS011;14227;47.674;19.320;2022-08-19T02:51:24;10.68;;;8.50;;
26578;SDS011;14227;47.674;19.320;2022-08-19T02:53:51;9.68;;;8.52;;
26578;SDS011;14227;47.674;19.320;2022-08-19T02:56:17;11.57;;;8.65;;
26578;SDS011;14227;47.674;19.320;2022-08-19T02:58:44;16.25;;;9.32;;
26578;SDS011;14227;47.674;19.320;2022-08-19T03:01:10;12.13;;;8.13;;
26578;SDS011;14227;47.674;19.320;2022-08-19T03:03:44;9.23;;;7.82;;
26578;SDS011;14227;47.674;19.320;2022-08-19T03:06:13;12.32;;;7.95;;
26578;SDS011;14227;47.674;19.320;2022-08-19T03:08:41;14.32;;;9.60;;
26578;SDS011;14227;47.674;19.320;2022-08-19T03:11:14;12.13;;;8.10;;
26578;SDS011;14227;47.674;19.320;2022-08-19T03:13:42;9.75;;;8.63;;
26578;SDS011;14227;47.674;19.320;2022-08-19T03:16:08;16.25;;;8.45;;
26578;SDS011;14227;47.674;19.320;2022-08-19T03:18:34;10.73;;;8.40;;
26578;SDS011;14227;47.674;19.320;2022-08-19T03:21:00;12.23;;;8.55;;
26578;SDS011;14227;47.674;19.320;2022-08-19T03:23:25;11.18;;;8.52;;
26578;SDS011;14227;47.674;19.320;2022-08-19T03:25:52;9.55;;;8.30;;
26578;SDS011;14227;47.674;19.320;2022-08-19T03:28:18;11.57;;;8.55;;
26578;SDS011;14227;47.674;19.320;2022-08-19T03:30:56;14.02;;;8.07;;
26578;SDS011;14227;47.674;19.320;2022-08-19T03:33:24;13.15;;;7.93;;
26578;SDS011;14227;47.674;19.320;2022-08-19T03:36:00;12.07;;;8.30;;
26578;SDS011;14227;47.674;19.320;2022-08-19T03:38:34;14.02;;;8.82;;
26578;SDS011;14227;47.674;19.320;2022-08-19T03:41:02;12.82;;;8.95;;
26578;SDS011;14227;47.674;19.320;2022-08-19T03:43:36;12.63;;;8.15;;
26578;SDS011;14227;47.674;19.320;2022-08-19T03:46:04;12.45;;;7.88;;
26578;SDS011;14227;47.674;19.320;2022-08-19T03:48:34;15.45;;;9.13;;
26578;SDS011;14227;47.674;19.320;2022-08-19T03:51:01;11.00;;;8.48;;
26578;SDS011;14227;47.674;19.320;2022-08-19T03:53:28;14.65;;;8.40;;
26578;SDS011;14227;47.674;19.320;2022-08-19T03:55:54;14.35;;;9.00;;
26578;SDS011;14227;47.674;19.320;2022-08-19T03:58:21;14.27;;;8.75;;
26578;SDS011;14227;47.674;19.320;2022-08-19T04:00:47;13.18;;;8.85;;
26578;SDS011;14227;47.674;19.320;2022-08-19T04:03:14;15.30;;;8.75;;
26578;SDS011;14227;47.674;19.320;2022-08-19T04:05:40;11.95;;;8.80;;
26578;SDS011;14227;47.674;19.320;2022-08-19T04:08:06;13.02;;;8.07;;
26578;SDS011;14227;47.674;19.320;2022-08-19T04:10:35;9.65;;;8.43;;
26578;SDS011;14227;47.674;19.320;2022-08-19T04:13:02;16.38;;;8.63;;
26578;SDS011;14227;47.674;19.320;2022-08-19T04:15:30;13.55;;;8.50;;
26578;SDS011;14227;47.674;19.320;2022-08-19T04:18:00;16.55;;;9.35;;
26578;SDS011;14227;47.674;19.320;2022-08-19T04:20:26;16.42;;;9.55;;
26578;SDS011;14227;47.674;19.320;2022-08-19T04:22:52;12.20;;;7.78;;
26578;SDS011;14227;47.674;19.320;2022-08-19T04:25:17;19.55;;;8.32;;
26578;SDS011;14227;47.674;19.320;2022-08-19T04:27:43;11.98;;;8.02;;
26578;SDS011;14227;47.674;19.320;2022-08-19T04:30:11;9.00;;;8.05;;
26578;SDS011;14227;47.674;19.320;2022-08-19T04:32:38;12.00;;;8.80;;
26578;SDS011;14227;47.674;19.320;2022-08-19T04:35:04;19.20;;;8.88;;
26578;SDS011;14227;47.674;19.320;2022-08-19T04:37:30;12.55;;;8.60;;
26578;SDS011;14227;47.674;19.320;2022-08-19T04:39:58;16.73;;;9.02;;
26578;SDS011;14227;47.674;19.320;2022-08-19T04:42:42;11.05;;;8.65;;
26578;SDS011;14227;47.674;19.320;2022-08-19T04:45:12;12.45;;;8.70;;
26578;SDS011;14227;47.674;19.320;2022-08-19T05:00:38;10.73;;;8.07;;
26578;SDS011;14227;47.674;19.320;2022-08-19T05:26:23;20.75;;;8.18;;
26578;SDS011;14227;47.674;19.320;2022-08-19T05:28:51;9.85;;;7.53;;
26578;SDS011;14227;47.674;19.320;2022-08-19T05:31:18;16.52;;;8.00;;
26578;SDS011;14227;47.674;19.320;2022-08-19T05:33:43;12.85;;;7.78;;
26578;SDS011;14227;47.674;19.320;2022-08-19T05:36:09;12.02;;;8.00;;
26578;SDS011;14227;47.674;19.320;2022-08-19T05:38:35;14.70;;;7.82;;
26578;SDS011;14227;47.674;19.320;2022-08-19T05:41:05;14.50;;;8.27;;
26578;SDS011;14227;47.674;19.320;2022-08-19T05:43:35;16.13;;;7.60;;
26578;SDS011;14227;47.674;19.320;2022-08-19T05:46:02;14.60;;;9.38;;
26578;SDS011;14227;47.674;19.320;2022-08-19T05:48:29;12.75;;;8.40;;
26578;SDS011;14227;47.674;19.320;2022-08-19T05:50:55;8.90;;;7.93;;
26578;SDS011;14227;47.674;19.320;2022-08-19T05:53:21;9.75;;;7.70;;
26578;SDS011;14227;47.674;19.320;2022-08-19T05:55:47;17.55;;;8.15;;
26578;SDS011;14227;47.674;19.320;2022-08-19T05:58:13;12.50;;;8.98;;
26578;SDS011;14227;47.674;19.320;2022-08-19T06:00:42;13.23;;;8.13;;
26578;SDS011;14227;47.674;19.320;2022-08-19T06:03:09;12.93;;;7.82;;
26578;SDS011;14227;47.674;19.320;2022-08-19T06:05:35;14.27;;;7.95;;
26578;SDS011;14227;47.674;19.320;2022-08-19T06:08:00;10.82;;;7.35;;
26578;SDS011;14227;47.674;19.320;2022-08-19T06:10:26;10.45;;;7.40;;
26578;SDS011;14227;47.674;19.320;2022-08-19T06:12:52;10.52;;;7.28;;
26578;SDS011;14227;47.674;19.320;2022-08-19T06:15:18;12.50;;;7.90;;
26578;SDS011;14227;47.674;19.320;2022-08-19T06:17:44;10.05;;;7.20;;
26578;SDS011;14227;47.674;19.320;2022-08-19T06:20:13;15.75;;;8.32;;
26578;SDS011;14227;47.674;19.320;2022-08-19T06:22:41;11.52;;;8.27;;
26578;SDS011;14227;47.674;19.320;2022-08-19T06:27:46;12.10;;;7.60;;
26578;SDS011;14227;47.674;19.320;2022-08-19T06:30:11;15.65;;;8.35;;
26578;SDS011;14227;47.674;19.320;2022-08-19T06:32:37;11.52;;;8.13;;
26578;SDS011;14227;47.674;19.320;2022-08-19T06:35:04;10.98;;;7.80;;
26578;SDS011;14227;47.674;19.320;2022-08-19T06:37:30;9.57;;;7.82;;
26578;SDS011;14227;47.674;19.320;2022-08-19T06:39:56;16.30;;;7.43;;
26578;SDS011;14227;47.674;19.320;2022-08-19T06:42:21;13.00;;;7.38;;
26578;SDS011;14227;47.674;19.320;2022-08-19T06:44:47;9.35;;;7.18;;
26578;SDS011;14227;47.674;19.320;2022-08-19T06:47:15;16.60;;;7.40;;
26578;SDS011;14227;47.674;19.320;2022-08-19T06:49:42;34.03;;;7.95;;
26578;SDS011;14227;47.674;19.320;2022-08-19T06:52:08;9.35;;;7.47;;
26578;SDS011;14227;47.674;19.320;2022-08-19T06:54:37;9.38;;;6.75;;
26578;SDS011;14227;47.674;19.320;2022-08-19T06:57:04;46.20;;;8.90;;
26578;SDS011;14227;47.674;19.320;2022-08-19T06:59:31;26.35;;;7.20;;
26578;SDS011;14227;47.674;19.320;2022-08-19T07:01:58;35.58;;;8.50;;
26578;SDS011;14227;47.674;19.320;2022-08-19T07:04:27;10.35;;;7.03;;
26578;SDS011;14227;47.674;19.320;2022-08-19T07:06:58;15.10;;;7.63;;
26578;SDS011;14227;47.674;19.320;2022-08-19T07:09:26;31.65;;;8.10;;
26578;SDS011;14227;47.674;19.320;2022-08-19T07:11:53;8.43;;;6.97;;
26578;SDS011;14227;47.674;19.320;2022-08-19T07:14:21;12.10;;;7.28;;
26578;SDS011;14227;47.674;19.320;2022-08-19T07:16:50;8.25;;;7.40;;
26578;SDS011;14227;47.674;19.320;2022-08-19T07:19:18;12.25;;;7.00;;
26578;SDS011;14227;47.674;19.320;2022-08-19T07:21:45;8.77;;;6.68;;
26578;SDS011;14227;47.674;19.320;2022-08-19T07:24:13;6.97;;;6.35;;
26578;SDS011;14227;47.674;19.320;2022-08-19T07:26:42;9.90;;;6.85;;
26578;SDS011;14227;47.674;19.320;2022-08-19T07:29:08;11.10;;;6.90;;
26578;SDS011;14227;47.674;19.320;2022-08-19T07:31:35;12.45;;;7.45;;
26578;SDS011;14227;47.674;19.320;2022-08-19T07:34:02;14.48;;;6.90;;
26578;SDS011;14227;47.674;19.320;2022-08-19T07:36:33;9.30;;;6.28;;
26578;SDS011;14227;47.674;19.320;2022-08-19T07:39:02;8.73;;;6.95;;
26578;SDS011;14227;47.674;19.320;2022-08-19T07:41:34;7.33;;;6.30;;
26578;SDS011;14227;47.674;19.320;2022-08-19T07:44:02;9.88;;;6.60;;
26578;SDS011;14227;47.674;19.320;2022-08-19T07:46:30;20.80;;;6.63;;
26578;SDS011;14227;47.674;19.320;2022-08-19T07:48:56;31.13;;;7.15;;
26578;SDS011;14227;47.674;19.320;2022-08-19T07:51:23;10.88;;;6.90;;
26578;SDS011;14227;47.674;19.320;2022-08-19T07:53:49;13.88;;;6.80;;
26578;SDS011;14227;47.674;19.320;2022-08-19T07:56:16;15.98;;;6.13;;
26578;SDS011;14227;47.674;19.320;2022-08-19T07:58:44;10.90;;;6.40;;
26578;SDS011;14227;47.674;19.320;2022-08-19T08:01:12;16.23;;;6.78;;
26578;SDS011;14227;47.674;19.320;2022-08-19T08:03:40;13.00;;;7.00;;
26578;SDS011;14227;47.674;19.320;2022-08-19T08:06:25;17.60;;;6.85;;
26578;SDS011;14227;47.674;19.320;2022-08-19T08:09:09;9.55;;;6.60;;
26578;SDS011;14227;47.674;19.320;2022-08-19T08:11:41;11.80;;;6.18;;
26578;SDS011;14227;47.674;19.320;2022-08-19T08:14:13;11.15;;;6.53;;
26578;SDS011;14227;47.674;19.320;2022-08-19T08:16:41;9.27;;;6.50;;
26578;SDS011;14227;47.674;19.320;2022-08-19T08:19:09;9.27;;;6.28;;
26578;SDS011;14227;47.674;19.320;2022-08-19T08:21:35;14.18;;;6.30;;
26578;SDS011;14227;47.674;19.320;2022-08-19T08:24:00;15.77;;;6.65;;
26578;SDS011;14227;47.674;19.320;2022-08-19T08:26:26;10.13;;;5.93;;
26578;SDS011;14227;47.674;19.320;2022-08-19T08:28:52;10.77;;;6.45;;
26578;SDS011;14227;47.674;19.320;2022-08-19T08:31:19;12.43;;;6.30;;
26578;SDS011;14227;47.674;19.320;2022-08-19T08:33:45;13.70;;;6.20;;
26578;SDS011;14227;47.674;19.320;2022-08-19T08:36:11;10.57;;;6.63;;
26578;SDS011;14227;47.674;19.320;2022-08-19T08:38:41;11.75;;;5.97;;
26578;SDS011;14227;47.674;19.320;2022-08-19T08:41:27;9.00;;;5.88;;
26578;SDS011;14227;47.674;19.320;2022-08-19T08:44:23;10.10;;;5.95;;
26578;SDS011;14227;47.674;19.320;2022-08-19T08:47:03;12.55;;;6.13;;
26578;SDS011;14227;47.674;19.320;2022-08-19T08:49:55;12.48;;;6.00;;
26578;SDS011;14227;47.674;19.320;2022-08-19T08:52:25;10.52;;;5.63;;
26578;SDS011;14227;47.674;19.320;2022-08-19T08:54:54;8.70;;;5.63;;
26578;SDS011;14227;47.674;19.320;2022-08-19T08:57:25;10.50;;;6.00;;
26578;SDS011;14227;47.674;19.320;2022-08-19T09:00:02;7.78;;;5.30;;
26578;SDS011;14227;47.674;19.320;2022-08-19T09:02:31;7.60;;;5.75;;
26578;SDS011;14227;47.674;19.320;2022-08-19T09:04:57;8.95;;;5.50;;
26578;SDS011;14227;47.674;19.320;2022-08-19T09:09:50;7.90;;;5.63;;
26578;SDS011;14227;47.674;19.320;2022-08-19T09:15:14;7.55;;;4.80;;
26578;SDS011;14227;47.674;19.320;2022-08-19T09:17:41;6.82;;;5.30;;
26578;SDS011;14227;47.674;19.320;2022-08-19T09:20:14;10.65;;;5.30;;
26578;SDS011;14227;47.674;19.320;2022-08-19T09:22:43;9.98;;;5.65;;
26578;SDS011;14227;47.674;19.320;2022-08-19T09:25:11;7.57;;;5.50;;
26578;SDS011;14227;47.674;19.320;2022-08-19T09:27:39;7.95;;;4.95;;
26578;SDS011;14227;47.674;19.320;2022-08-19T09:30:06;8.02;;;5.50;;
26578;SDS011;14227;47.674;19.320;2022-08-19T09:32:34;10.25;;;5.63;;
26578;SDS011;14227;47.674;19.320;2022-08-19T09:35:00;8.20;;;5.22;;
26578;SDS011;14227;47.674;19.320;2022-08-19T09:37:26;5.78;;;5.15;;
26578;SDS011;14227;47.674;19.320;2022-08-19T09:39:52;7.18;;;4.93;;
26578;SDS011;14227;47.674;19.320;2022-08-19T09:42:18;11.07;;;4.75;;
26578;SDS011;14227;47.674;19.320;2022-08-19T09:44:45;5.70;;;4.93;;
26578;SDS011;14227;47.674;19.320;2022-08-19T09:47:12;8.70;;;5.05;;
26578;SDS011;14227;47.674;19.320;2022-08-19T09:49:39;9.32;;;5.60;;
26578;SDS011;14227;47.674;19.320;2022-08-19T09:52:06;11.75;;;5.60;;
26578;SDS011;14227;47.674;19.320;2022-08-19T09:54:34;7.35;;;4.85;;
26578;SDS011;14227;47.674;19.320;2022-08-19T09:57:00;8.27;;;5.82;;
26578;SDS011;14227;47.674;19.320;2022-08-19T09:59:30;6.75;;;5.13;;
26578;SDS011;14227;47.674;19.320;2022-08-19T10:02:02;7.13;;;5.10;;
26578;SDS011;14227;47.674;19.320;2022-08-19T10:04:27;7.20;;;5.55;;
26578;SDS011;14227;47.674;19.320;2022-08-19T10:07:13;8.48;;;4.97;;
26578;SDS011;14227;47.674;19.320;2022-08-19T10:09:42;7.13;;;5.13;;
26578;SDS011;14227;47.674;19.320;2022-08-19T10:12:08;6.15;;;4.93;;
26578;SDS011;14227;47.674;19.320;2022-08-19T10:14:34;7.00;;;5.53;;
26578;SDS011;14227;47.674;19.320;2022-08-19T10:17:00;8.75;;;5.05;;
26578;SDS011;14227;47.674;19.320;2022-08-19T10:19:27;9.55;;;5.55;;
26578;SDS011;14227;47.674;19.320;2022-08-19T10:21:55;12.02;;;5.30;;
26578;SDS011;14227;47.674;19.320;2022-08-19T10:24:21;10.20;;;5.50;;
26578;SDS011;14227;47.674;19.320;2022-08-19T10:26:49;10.32;;;4.93;;
26578;SDS011;14227;47.674;19.320;2022-08-19T10:29:17;11.25;;;5.25;;
26578;SDS011;14227;47.674;19.320;2022-08-19T10:31:43;14.40;;;5.60;;
26578;SDS011;14227;47.674;19.320;2022-08-19T10:34:08;8.70;;;5.03;;
26578;SDS011;14227;47.674;19.320;2022-08-19T10:36:35;8.52;;;5.53;;
26578;SDS011;14227;47.674;19.320;2022-08-19T10:39:06;13.27;;;5.13;;
26578;SDS011;14227;47.674;19.320;2022-08-19T10:41:36;6.63;;;4.97;;
26578;SDS011;14227;47.674;19.320;2022-08-19T10:44:08;7.55;;;5.25;;
26578;SDS011;14227;47.674;19.320;2022-08-19T10:46:37;4.72;;;4.25;;
26578;SDS011;14227;47.674;19.320;2022-08-19T10:49:06;8.77;;;5.13;;
26578;SDS011;14227;47.674;19.320;2022-08-19T10:51:34;8.93;;;4.65;;
26578;SDS011;14227;47.674;19.320;2022-08-19T10:54:18;11.07;;;5.15;;
26578;SDS011;14227;47.674;19.320;2022-08-19T10:56:45;15.73;;;5.13;;
26578;SDS011;14227;47.674;19.320;2022-08-19T10:59:23;7.55;;;5.00;;
26578;SDS011;14227;47.674;19.320;2022-08-19T11:01:51;10.40;;;5.00;;
26578;SDS011;14227;47.674;19.320;2022-08-19T11:04:17;7.97;;;4.85;;
26578;SDS011;14227;47.674;19.320;2022-08-19T11:06:45;16.13;;;5.05;;
26578;SDS011;14227;47.674;19.320;2022-08-19T11:09:13;10.18;;;5.13;;
26578;SDS011;14227;47.674;19.320;2022-08-19T11:11:40;7.38;;;4.65;;
26578;SDS011;14227;47.674;19.320;2022-08-19T11:14:08;7.75;;;5.10;;
26578;SDS011;14227;47.674;19.320;2022-08-19T11:16:36;9.68;;;5.10;;
26578;SDS011;14227;47.674;19.320;2022-08-19T11:19:04;6.03;;;5.35;;
26578;SDS011;14227;47.674;19.320;2022-08-19T11:21:33;11.63;;;4.25;;
26578;SDS011;14227;47.674;19.320;2022-08-19T11:24:02;5.25;;;4.50;;
26578;SDS011;14227;47.674;19.320;2022-08-19T11:26:31;10.40;;;4.60;;
26578;SDS011;14227;47.674;19.320;2022-08-19T11:28:57;11.13;;;4.50;;
26578;SDS011;14227;47.674;19.320;2022-08-19T11:31:25;10.32;;;4.43;;
26578;SDS011;14227;47.674;19.320;2022-08-19T11:33:55;7.43;;;4.75;;
26578;SDS011;14227;47.674;19.320;2022-08-19T11:36:25;9.45;;;4.50;;
26578;SDS011;14227;47.674;19.320;2022-08-19T11:38:52;11.57;;;5.53;;
26578;SDS011;14227;47.674;19.320;2022-08-19T11:41:21;16.58;;;4.85;;
26578;SDS011;14227;47.674;19.320;2022-08-19T11:43:50;10.27;;;4.88;;
26578;SDS011;14227;47.674;19.320;2022-08-19T11:46:19;9.18;;;5.28;;
26578;SDS011;14227;47.674;19.320;2022-08-19T11:48:45;9.35;;;4.43;;
26578;SDS011;14227;47.674;19.320;2022-08-19T11:51:12;7.03;;;4.60;;
26578;SDS011;14227;47.674;19.320;2022-08-19T11:53:40;9.40;;;4.18;;
26578;SDS011;14227;47.674;19.320;2022-08-19T11:56:06;8.68;;;4.43;;
26578;SDS011;14227;47.674;19.320;2022-08-19T11:58:33;12.15;;;5.47;;
26578;SDS011;14227;47.674;19.320;2022-08-19T12:01:00;7.75;;;4.72;;
26578;SDS011;14227;47.674;19.320;2022-08-19T12:03:26;19.58;;;4.97;;
26578;SDS011;14227;47.674;19.320;2022-08-19T12:05:52;8.70;;;5.30;;
26578;SDS011;14227;47.674;19.320;2022-08-19T12:08:18;8.63;;;4.45;;
26578;SDS011;14227;47.674;19.320;2022-08-19T12:10:44;10.77;;;4.78;;
26578;SDS011;14227;47.674;19.320;2022-08-19T12:13:10;16.85;;;5.30;;
26578;SDS011;14227;47.674;19.320;2022-08-19T12:15:43;8.68;;;4.50;;
26578;SDS011;14227;47.674;19.320;2022-08-19T12:18:10;8.27;;;4.75;;
26578;SDS011;14227;47.674;19.320;2022-08-19T12:20:39;10.27;;;4.25;;
26578;SDS011;14227;47.674;19.320;2022-08-19T12:23:06;8.57;;;4.20;;
26578;SDS011;14227;47.674;19.320;2022-08-19T12:25:34;6.50;;;4.20;;
26578;SDS011;14227;47.674;19.320;2022-08-19T12:28:01;10.13;;;4.75;;
26578;SDS011;14227;47.674;19.320;2022-08-19T12:30:27;14.57;;;4.97;;
26578;SDS011;14227;47.674;19.320;2022-08-19T12:32:53;15.75;;;4.18;;
26578;SDS011;14227;47.674;19.320;2022-08-19T12:35:18;11.48;;;4.38;;
26578;SDS011;14227;47.674;19.320;2022-08-19T12:37:47;16.40;;;4.88;;
26578;SDS011;14227;47.674;19.320;2022-08-19T12:40:15;11.65;;;4.10;;
26578;SDS011;14227;47.674;19.320;2022-08-19T12:42:42;10.70;;;4.28;;
26578;SDS011;14227;47.674;19.320;2022-08-19T12:45:12;11.57;;;4.47;;
26578;SDS011;14227;47.674;19.320;2022-08-19T12:47:38;10.40;;;4.50;;
26578;SDS011;14227;47.674;19.320;2022-08-19T12:50:04;9.88;;;4.20;;
26578;SDS011;14227;47.674;19.320;2022-08-19T12:52:34;16.00;;;4.75;;
26578;SDS011;14227;47.674;19.320;2022-08-19T12:55:06;10.10;;;4.53;;
26578;SDS011;14227;47.674;19.320;2022-08-19T12:57:32;7.40;;;4.35;;
26578;SDS011;14227;47.674;19.320;2022-08-19T13:00:05;10.50;;;4.38;;
26578;SDS011;14227;47.674;19.320;2022-08-19T13:02:35;12.30;;;4.82;;
26578;SDS011;14227;47.674;19.320;2022-08-19T13:05:01;12.25;;;4.70;;
26578;SDS011;14227;47.674;19.320;2022-08-19T13:07:28;10.13;;;4.20;;
26578;SDS011;14227;47.674;19.320;2022-08-19T13:09:55;14.85;;;4.70;;
26578;SDS011;14227;47.674;19.320;2022-08-19T13:12:21;10.50;;;4.15;;
26578;SDS011;14227;47.674;19.320;2022-08-19T13:14:49;10.48;;;4.50;;
26578;SDS011;14227;47.674;19.320;2022-08-19T13:17:16;12.93;;;4.45;;
26578;SDS011;14227;47.674;19.320;2022-08-19T13:19:41;15.75;;;4.70;;
26578;SDS011;14227;47.674;19.320;2022-08-19T13:22:07;7.93;;;4.05;;
26578;SDS011;14227;47.674;19.320;2022-08-19T13:24:33;10.98;;;5.00;;
26578;SDS011;14227;47.674;19.320;2022-08-19T13:26:59;17.75;;;5.05;;
26578;SDS011;14227;47.674;19.320;2022-08-19T13:29:25;16.88;;;5.18;;
26578;SDS011;14227;47.674;19.320;2022-08-19T13:32:09;11.15;;;4.53;;
26578;SDS011;14227;47.674;19.320;2022-08-19T13:34:53;6.40;;;4.10;;
26578;SDS011;14227;47.674;19.320;2022-08-19T13:37:19;9.00;;;4.25;;
26578;SDS011;14227;47.674;19.320;2022-08-19T13:40:05;9.02;;;4.72;;
26578;SDS011;14227;47.674;19.320;2022-08-19T13:42:31;8.20;;;4.30;;
26578;SDS011;14227;47.674;19.320;2022-08-19T13:44:57;10.73;;;4.47;;
26578;SDS011;14227;47.674;19.320;2022-08-19T13:47:23;7.72;;;4.68;;
26578;SDS011;14227;47.674;19.320;2022-08-19T13:49:49;9.95;;;4.25;;
26578;SDS011;14227;47.674;19.320;2022-08-19T13:52:15;12.45;;;4.68;;
26578;SDS011;14227;47.674;19.320;2022-08-19T13:54:40;10.93;;;4.60;;
26578;SDS011;14227;47.674;19.320;2022-08-19T13:57:06;17.73;;;5.15;;
26578;SDS011;14227;47.674;19.320;2022-08-19T13:59:32;11.80;;;4.05;;
26578;SDS011;14227;47.674;19.320;2022-08-19T14:01:58;18.65;;;4.75;;
26578;SDS011;14227;47.674;19.320;2022-08-19T14:04:25;7.43;;;4.10;;
26578;SDS011;14227;47.674;19.320;2022-08-19T14:06:50;13.32;;;3.92;;
26578;SDS011;14227;47.674;19.320;2022-08-19T14:09:16;9.88;;;4.53;;
26578;SDS011;14227;47.674;19.320;2022-08-19T14:11:42;17.85;;;4.80;;
26578;SDS011;14227;47.674;19.320;2022-08-19T14:14:10;16.23;;;4.65;;
26578;SDS011;14227;47.674;19.320;2022-08-19T14:16:36;10.43;;;4.88;;
26578;SDS011;14227;47.674;19.320;2022-08-19T14:19:01;15.77;;;4.75;;
26578;SDS011;14227;47.674;19.320;2022-08-19T14:21:27;10.52;;;3.92;;
26578;SDS011;14227;47.674;19.320;2022-08-19T14:23:53;18.08;;;4.78;;
26578;SDS011;14227;47.674;19.320;2022-08-19T14:26:20;9.05;;;4.10;;
26578;SDS011;14227;47.674;19.320;2022-08-19T14:28:46;9.23;;;4.15;;
26578;SDS011;14227;47.674;19.320;2022-08-19T14:31:12;8.13;;;4.70;;
26578;SDS011;14227;47.674;19.320;2022-08-19T14:33:43;8.32;;;4.38;;
26578;SDS011;14227;47.674;19.320;2022-08-19T14:36:09;14.80;;;4.13;;
26578;SDS011;14227;47.674;19.320;2022-08-19T14:38:34;12.43;;;4.60;;
26578;SDS011;14227;47.674;19.320;2022-08-19T14:43:34;11.60;;;4.10;;
26578;SDS011;14227;47.674;19.320;2022-08-19T14:45:59;9.52;;;3.67;;
26578;SDS011;14227;47.674;19.320;2022-08-19T14:48:25;10.95;;;4.00;;
26578;SDS011;14227;47.674;19.320;2022-08-19T14:50:51;11.38;;;4.10;;
26578;SDS011;14227;47.674;19.320;2022-08-19T14:53:17;9.40;;;4.18;;
26578;SDS011;14227;47.674;19.320;2022-08-19T14:55:43;48.72;;;5.18;;
26578;SDS011;14227;47.674;19.320;2022-08-19T14:58:10;34.33;;;4.88;;
26578;SDS011;14227;47.674;19.320;2022-08-19T15:00:36;36.63;;;5.50;;
26578;SDS011;14227;47.674;19.320;2022-08-19T15:03:01;33.50;;;4.70;;
26578;SDS011;14227;47.674;19.320;2022-08-19T15:05:27;51.28;;;5.38;;
26578;SDS011;14227;47.674;19.320;2022-08-19T15:07:53;43.25;;;4.80;;
26578;SDS011;14227;47.674;19.320;2022-08-19T15:10:19;32.50;;;5.20;;
26578;SDS011;14227;47.674;19.320;2022-08-19T15:12:48;34.60;;;5.03;;
26578;SDS011;14227;47.674;19.320;2022-08-19T15:15:14;32.25;;;5.22;;
26578;SDS011;14227;47.674;19.320;2022-08-19T15:17:42;29.58;;;4.70;;